Bonilla, South Dakota
Current Conditions -  °F | °C
As of 1:55 AM on Thursday 23 Oct 2014 (Local Time) from KHON Reporting Station
Clear Clear  
Wind Chill: 41°   Ceiling: Unl
Heat Index: 45°   Visibility: 10mi
Dew Point: 43°   Wind: 7mph
Humidity: 93%   Direction: 170°S
Pressure: 29.98"   Gusts: NA
Location:  44.5719°N, 98.4744°W
Report Text: KHON 230655Z AUTO 17006KT 10SM CLR 07/06 A2998 RMK AO2 SLP158 T00720061
Loading
Personal Weather Stations






























Interactive Weather Map
Tropical Storm Tracking
New forecast layout! Learn more

10-Day Weather Forecast

Advertisements
Track Severe Weather on mobile